Aeroporto :
LOGIN :

Iscrizione | Disclaimer

   EN    FR    IT 

 










Sommario :    VFR   VFR Marginale   IFR   IFR Intensivo   IFR Molto Intensivo
Visibilità : 
Base nubi : 
>= 8 km
>= 3000ft
5 / 8 km
1000 / 3000 ft
1500m / 5 km
500 / 1000 ft
800 / 1500m
200 / 500 ft
< 800m
< 200 ft
Simboli :   Temporali  Nebbia  Neve Forte  Precipitazioni Forti  Vento > 20 kt
SIGMETs :   Varie  Temporali  Ghiacco  Turbolenza  Onda orograficha  Ceneri Vulcaniche






- Altitudine del aeroporto : 102 ft
- Codice IATA : EXT


EGTE - Exeter

ULTIMO METAR :
  • 211220Z 02009KT 330V050 9999 FEW016 BKN022 11/08 Q1021

METARs OBSOLETI :
  • 211150Z 01009KT 340V040 9999 SCT017 12/09 Q1021
  • 211120Z 02010KT 350V050 9999 SCT016 12/09 Q1021
  • 211050Z 02011KT 340V050 9999 SCT015 12/09 Q1021
  • 211020Z 02010KT 330V050 9999 SCT012 11/09 Q1021
  • 210950Z 35011KT 9999 SCT015 10/08 Q1020

TAF TAF EGTE
Valido dal 21 a 12 ore il 21 a 21 ore UTC


211058Z 2112/2121 01007KT 9999 SCT035



MetMap, La meteo Aeronautica in un colpo d'occhio ! - Copyright ORBIFLY Dicembre 2007 - Disclaimer

ORBIFLY MET'MAP TEAM :

Programmazione e sviluppo : Alexandra Zaïnal
Concezione e sviluppo : Baudouin d'Aumeries
Co-Programmazione e sviluppo : Marc-Olivier Méhu
Supporto tecnico e logistico : Manuel Goepfert
Aiuto per la traduzione : Arnaldo La Scala

Contatto : metmap@orbifly.com




FONTI E CREDITI :

   NOAA